sensor_id;sensor_type;location;lat;lon;timestamp;P1;durP1;ratioP1;P2;durP2;ratioP2
63499;SDS011;49654;51.142;14.924;2022-12-16T00:01:14;71.30;;;35.20;;
63499;SDS011;49654;51.142;14.924;2022-12-16T00:03:46;68.83;;;35.23;;
63499;SDS011;49654;51.142;14.924;2022-12-16T00:06:14;72.27;;;36.93;;
63499;SDS011;49654;51.142;14.924;2022-12-16T00:08:43;63.40;;;34.80;;
63499;SDS011;49654;51.142;14.924;2022-12-16T00:11:10;76.40;;;37.33;;
63499;SDS011;49654;51.142;14.924;2022-12-16T00:13:38;70.73;;;37.50;;
63499;SDS011;49654;51.142;14.924;2022-12-16T00:16:06;77.33;;;36.57;;
63499;SDS011;49654;51.142;14.924;2022-12-16T00:18:35;78.07;;;37.23;;
63499;SDS011;49654;51.142;14.924;2022-12-16T00:21:03;77.70;;;37.67;;
63499;SDS011;49654;51.142;14.924;2022-12-16T00:23:30;77.03;;;37.37;;
63499;SDS011;49654;51.142;14.924;2022-12-16T00:25:59;77.33;;;38.00;;
63499;SDS011;49654;51.142;14.924;2022-12-16T00:28:26;78.70;;;38.67;;
63499;SDS011;49654;51.142;14.924;2022-12-16T00:30:54;73.83;;;36.47;;
63499;SDS011;49654;51.142;14.924;2022-12-16T00:33:22;76.50;;;37.60;;
63499;SDS011;49654;51.142;14.924;2022-12-16T00:35:51;75.13;;;38.80;;
63499;SDS011;49654;51.142;14.924;2022-12-16T00:38:19;76.53;;;38.80;;
63499;SDS011;49654;51.142;14.924;2022-12-16T00:40:46;75.47;;;36.97;;
63499;SDS011;49654;51.142;14.924;2022-12-16T00:43:15;78.07;;;38.80;;
63499;SDS011;49654;51.142;14.924;2022-12-16T00:45:45;78.03;;;39.57;;
63499;SDS011;49654;51.142;14.924;2022-12-16T00:48:14;87.33;;;41.33;;
63499;SDS011;49654;51.142;14.924;2022-12-16T00:50:43;80.93;;;39.10;;
63499;SDS011;49654;51.142;14.924;2022-12-16T00:53:11;83.50;;;40.60;;
63499;SDS011;49654;51.142;14.924;2022-12-16T00:55:38;87.03;;;40.70;;
63499;SDS011;49654;51.142;14.924;2022-12-16T00:58:05;81.17;;;39.33;;
63499;SDS011;49654;51.142;14.924;2022-12-16T01:00:34;83.40;;;40.70;;
63499;SDS011;49654;51.142;14.924;2022-12-16T01:03:01;82.63;;;41.20;;
63499;SDS011;49654;51.142;14.924;2022-12-16T01:05:29;89.87;;;41.57;;
63499;SDS011;49654;51.142;14.924;2022-12-16T01:07:56;87.20;;;41.73;;
63499;SDS011;49654;51.142;14.924;2022-12-16T01:10:24;93.53;;;44.60;;
63499;SDS011;49654;51.142;14.924;2022-12-16T01:12:51;98.87;;;44.80;;
63499;SDS011;49654;51.142;14.924;2022-12-16T01:15:18;104.23;;;46.87;;
63499;SDS011;49654;51.142;14.924;2022-12-16T01:17:47;99.33;;;46.57;;
63499;SDS011;49654;51.142;14.924;2022-12-16T01:20:14;108.33;;;49.37;;
63499;SDS011;49654;51.142;14.924;2022-12-16T01:22:41;108.90;;;47.23;;
63499;SDS011;49654;51.142;14.924;2022-12-16T01:25:08;106.17;;;47.63;;
63499;SDS011;49654;51.142;14.924;2022-12-16T01:27:37;104.47;;;47.70;;
63499;SDS011;49654;51.142;14.924;2022-12-16T01:30:05;101.80;;;47.17;;
63499;SDS011;49654;51.142;14.924;2022-12-16T01:32:33;103.47;;;47.30;;
63499;SDS011;49654;51.142;14.924;2022-12-16T01:35:02;97.53;;;45.13;;
63499;SDS011;49654;51.142;14.924;2022-12-16T01:37:29;102.70;;;47.13;;
63499;SDS011;49654;51.142;14.924;2022-12-16T01:39:56;101.40;;;47.30;;
63499;SDS011;49654;51.142;14.924;2022-12-16T01:42:23;93.83;;;44.30;;
63499;SDS011;49654;51.142;14.924;2022-12-16T01:44:53;96.17;;;45.87;;
63499;SDS011;49654;51.142;14.924;2022-12-16T01:47:21;102.83;;;46.13;;
63499;SDS011;49654;51.142;14.924;2022-12-16T01:49:52;95.60;;;45.30;;
63499;SDS011;49654;51.142;14.924;2022-12-16T01:52:24;99.93;;;47.50;;
63499;SDS011;49654;51.142;14.924;2022-12-16T01:54:57;102.80;;;47.17;;
63499;SDS011;49654;51.142;14.924;2022-12-16T01:57:29;95.43;;;45.20;;
63499;SDS011;49654;51.142;14.924;2022-12-16T02:00:02;95.83;;;44.47;;
63499;SDS011;49654;51.142;14.924;2022-12-16T02:02:31;100.93;;;47.20;;
63499;SDS011;49654;51.142;14.924;2022-12-16T02:04:59;102.60;;;49.17;;
63499;SDS011;49654;51.142;14.924;2022-12-16T02:07:47;107.70;;;50.27;;
63499;SDS011;49654;51.142;14.924;2022-12-16T02:10:27;104.70;;;47.83;;
63499;SDS011;49654;51.142;14.924;2022-12-16T02:13:02;104.53;;;48.87;;
63499;SDS011;49654;51.142;14.924;2022-12-16T02:15:40;105.20;;;48.60;;
63499;SDS011;49654;51.142;14.924;2022-12-16T02:18:13;96.73;;;45.63;;
63499;SDS011;49654;51.142;14.924;2022-12-16T02:26:52;114.57;;;51.63;;
63499;SDS011;49654;51.142;14.924;2022-12-16T02:29:47;98.47;;;47.73;;
63499;SDS011;49654;51.142;14.924;2022-12-16T02:32:31;100.23;;;45.53;;
63499;SDS011;49654;51.142;14.924;2022-12-16T02:35:05;90.73;;;44.10;;
63499;SDS011;49654;51.142;14.924;2022-12-16T02:37:37;89.47;;;42.53;;
63499;SDS011;49654;51.142;14.924;2022-12-16T02:40:10;93.70;;;43.10;;
63499;SDS011;49654;51.142;14.924;2022-12-16T02:42:47;87.87;;;40.70;;
63499;SDS011;49654;51.142;14.924;2022-12-16T02:45:20;80.33;;;40.33;;
63499;SDS011;49654;51.142;14.924;2022-12-16T02:47:53;74.07;;;37.83;;
63499;SDS011;49654;51.142;14.924;2022-12-16T02:50:20;81.90;;;38.60;;
63499;SDS011;49654;51.142;14.924;2022-12-16T02:52:50;76.13;;;38.40;;
63499;SDS011;49654;51.142;14.924;2022-12-16T02:55:20;84.13;;;40.43;;
63499;SDS011;49654;51.142;14.924;2022-12-16T02:57:58;74.20;;;38.60;;
63499;SDS011;49654;51.142;14.924;2022-12-16T03:00:37;76.37;;;38.70;;
63499;SDS011;49654;51.142;14.924;2022-12-16T03:03:11;78.67;;;39.40;;
63499;SDS011;49654;51.142;14.924;2022-12-16T03:05:44;73.93;;;39.20;;
63499;SDS011;49654;51.142;14.924;2022-12-16T03:08:14;75.97;;;40.00;;
63499;SDS011;49654;51.142;14.924;2022-12-16T03:10:46;82.37;;;41.00;;
63499;SDS011;49654;51.142;14.924;2022-12-16T03:13:16;77.53;;;40.43;;
63499;SDS011;49654;51.142;14.924;2022-12-16T03:15:46;82.50;;;39.40;;
63499;SDS011;49654;51.142;14.924;2022-12-16T03:18:16;83.97;;;39.63;;
63499;SDS011;49654;51.142;14.924;2022-12-16T03:20:46;82.23;;;40.80;;
63499;SDS011;49654;51.142;14.924;2022-12-16T03:23:19;82.93;;;41.97;;
63499;SDS011;49654;51.142;14.924;2022-12-16T03:25:52;81.57;;;41.70;;
63499;SDS011;49654;51.142;14.924;2022-12-16T03:28:26;80.60;;;41.17;;
63499;SDS011;49654;51.142;14.924;2022-12-16T03:31:03;81.70;;;42.00;;
63499;SDS011;49654;51.142;14.924;2022-12-16T03:33:38;82.30;;;40.63;;
63499;SDS011;49654;51.142;14.924;2022-12-16T03:36:13;82.30;;;41.87;;
63499;SDS011;49654;51.142;14.924;2022-12-16T03:38:43;79.23;;;40.33;;
63499;SDS011;49654;51.142;14.924;2022-12-16T03:41:13;82.87;;;41.17;;
63499;SDS011;49654;51.142;14.924;2022-12-16T03:43:41;86.37;;;42.80;;
63499;SDS011;49654;51.142;14.924;2022-12-16T03:46:09;86.50;;;41.27;;
63499;SDS011;49654;51.142;14.924;2022-12-16T03:48:45;84.03;;;43.63;;
63499;SDS011;49654;51.142;14.924;2022-12-16T03:51:13;91.83;;;43.87;;
63499;SDS011;49654;51.142;14.924;2022-12-16T03:53:40;91.93;;;43.73;;
63499;SDS011;49654;51.142;14.924;2022-12-16T03:56:07;88.57;;;44.37;;
63499;SDS011;49654;51.142;14.924;2022-12-16T03:58:35;87.30;;;43.63;;
63499;SDS011;49654;51.142;14.924;2022-12-16T04:01:04;93.43;;;45.63;;
63499;SDS011;49654;51.142;14.924;2022-12-16T04:03:32;95.50;;;46.67;;
63499;SDS011;49654;51.142;14.924;2022-12-16T04:06:00;96.10;;;47.27;;
63499;SDS011;49654;51.142;14.924;2022-12-16T04:08:28;99.17;;;47.13;;
63499;SDS011;49654;51.142;14.924;2022-12-16T04:10:55;96.73;;;46.90;;
63499;SDS011;49654;51.142;14.924;2022-12-16T04:13:40;95.77;;;46.50;;
63499;SDS011;49654;51.142;14.924;2022-12-16T04:16:25;93.50;;;46.27;;
63499;SDS011;49654;51.142;14.924;2022-12-16T04:19:14;97.70;;;48.30;;
63499;SDS011;49654;51.142;14.924;2022-12-16T04:22:04;100.80;;;50.60;;
63499;SDS011;49654;51.142;14.924;2022-12-16T04:24:54;103.10;;;49.67;;
63499;SDS011;49654;51.142;14.924;2022-12-16T04:27:21;98.23;;;50.53;;
63499;SDS011;49654;51.142;14.924;2022-12-16T04:29:52;104.70;;;52.43;;
63499;SDS011;49654;51.142;14.924;2022-12-16T04:32:36;105.67;;;51.70;;
63499;SDS011;49654;51.142;14.924;2022-12-16T04:35:21;107.27;;;51.87;;
63499;SDS011;49654;51.142;14.924;2022-12-16T04:38:09;114.47;;;53.40;;
63499;SDS011;49654;51.142;14.924;2022-12-16T04:40:53;114.60;;;54.00;;
63499;SDS011;49654;51.142;14.924;2022-12-16T04:43:38;119.77;;;53.40;;
63499;SDS011;49654;51.142;14.924;2022-12-16T04:46:22;119.30;;;54.80;;
63499;SDS011;49654;51.142;14.924;2022-12-16T04:49:12;114.53;;;52.13;;
63499;SDS011;49654;51.142;14.924;2022-12-16T04:51:57;118.23;;;53.77;;
63499;SDS011;49654;51.142;14.924;2022-12-16T04:54:43;117.47;;;54.47;;
63499;SDS011;49654;51.142;14.924;2022-12-16T04:57:27;115.90;;;55.13;;
63499;SDS011;49654;51.142;14.924;2022-12-16T05:00:12;115.30;;;54.30;;
63499;SDS011;49654;51.142;14.924;2022-12-16T05:02:57;115.93;;;54.87;;
63499;SDS011;49654;51.142;14.924;2022-12-16T05:05:41;121.27;;;57.73;;
63499;SDS011;49654;51.142;14.924;2022-12-16T05:08:25;115.40;;;55.43;;
63499;SDS011;49654;51.142;14.924;2022-12-16T05:11:11;121.70;;;58.37;;
63499;SDS011;49654;51.142;14.924;2022-12-16T05:13:56;115.93;;;55.77;;
63499;SDS011;49654;51.142;14.924;2022-12-16T05:16:40;113.57;;;55.50;;
63499;SDS011;49654;51.142;14.924;2022-12-16T05:19:25;114.77;;;55.43;;
63499;SDS011;49654;51.142;14.924;2022-12-16T05:22:20;106.50;;;53.90;;
63499;SDS011;49654;51.142;14.924;2022-12-16T05:25:05;115.43;;;54.53;;
63499;SDS011;49654;51.142;14.924;2022-12-16T05:27:52;109.57;;;53.77;;
63499;SDS011;49654;51.142;14.924;2022-12-16T05:30:37;113.37;;;54.63;;
63499;SDS011;49654;51.142;14.924;2022-12-16T05:33:22;104.87;;;51.40;;
63499;SDS011;49654;51.142;14.924;2022-12-16T05:36:06;112.80;;;56.77;;
63499;SDS011;49654;51.142;14.924;2022-12-16T05:38:51;110.50;;;53.47;;
63499;SDS011;49654;51.142;14.924;2022-12-16T05:41:35;116.87;;;56.83;;
63499;SDS011;49654;51.142;14.924;2022-12-16T05:44:21;119.47;;;55.57;;
63499;SDS011;49654;51.142;14.924;2022-12-16T05:47:07;112.53;;;53.07;;
63499;SDS011;49654;51.142;14.924;2022-12-16T05:49:51;111.87;;;53.40;;
63499;SDS011;49654;51.142;14.924;2022-12-16T05:52:36;113.13;;;54.23;;
63499;SDS011;49654;51.142;14.924;2022-12-16T05:55:21;109.87;;;53.73;;
63499;SDS011;49654;51.142;14.924;2022-12-16T05:58:08;114.40;;;52.67;;
63499;SDS011;49654;51.142;14.924;2022-12-16T06:00:54;109.27;;;54.03;;
63499;SDS011;49654;51.142;14.924;2022-12-16T06:03:38;113.50;;;53.13;;
63499;SDS011;49654;51.142;14.924;2022-12-16T06:06:28;110.00;;;53.10;;
63499;SDS011;49654;51.142;14.924;2022-12-16T06:09:13;119.97;;;55.30;;
63499;SDS011;49654;51.142;14.924;2022-12-16T06:11:58;121.93;;;56.20;;
63499;SDS011;49654;51.142;14.924;2022-12-16T06:14:39;118.87;;;56.67;;
63499;SDS011;49654;51.142;14.924;2022-12-16T06:17:25;120.60;;;55.40;;
63499;SDS011;49654;51.142;14.924;2022-12-16T06:20:09;120.37;;;55.47;;
63499;SDS011;49654;51.142;14.924;2022-12-16T06:22:54;119.93;;;55.10;;
63499;SDS011;49654;51.142;14.924;2022-12-16T06:25:38;122.97;;;55.63;;
63499;SDS011;49654;51.142;14.924;2022-12-16T06:28:24;117.23;;;53.97;;
63499;SDS011;49654;51.142;14.924;2022-12-16T06:31:08;120.63;;;54.03;;
63499;SDS011;49654;51.142;14.924;2022-12-16T06:33:55;113.03;;;52.23;;
63499;SDS011;49654;51.142;14.924;2022-12-16T06:36:39;120.40;;;54.80;;
63499;SDS011;49654;51.142;14.924;2022-12-16T06:39:24;111.97;;;53.73;;
63499;SDS011;49654;51.142;14.924;2022-12-16T06:42:23;121.67;;;56.17;;
63499;SDS011;49654;51.142;14.924;2022-12-16T06:45:07;128.43;;;64.13;;
63499;SDS011;49654;51.142;14.924;2022-12-16T06:47:52;132.37;;;66.77;;
63499;SDS011;49654;51.142;14.924;2022-12-16T06:50:38;120.10;;;62.77;;
63499;SDS011;49654;51.142;14.924;2022-12-16T06:53:23;118.80;;;55.97;;
63499;SDS011;49654;51.142;14.924;2022-12-16T06:56:07;114.47;;;53.20;;
63499;SDS011;49654;51.142;14.924;2022-12-16T06:58:52;124.83;;;57.10;;
63499;SDS011;49654;51.142;14.924;2022-12-16T07:01:36;114.40;;;54.10;;
63499;SDS011;49654;51.142;14.924;2022-12-16T07:04:20;119.40;;;55.47;;
63499;SDS011;49654;51.142;14.924;2022-12-16T07:07:06;118.13;;;55.43;;
63499;SDS011;49654;51.142;14.924;2022-12-16T07:09:56;111.20;;;52.57;;
63499;SDS011;49654;51.142;14.924;2022-12-16T07:12:41;111.80;;;53.83;;
63499;SDS011;49654;51.142;14.924;2022-12-16T07:15:26;118.37;;;54.13;;
63499;SDS011;49654;51.142;14.924;2022-12-16T07:18:10;112.37;;;52.97;;
63499;SDS011;49654;51.142;14.924;2022-12-16T07:20:55;111.10;;;53.53;;
63499;SDS011;49654;51.142;14.924;2022-12-16T07:23:41;115.67;;;54.00;;
63499;SDS011;49654;51.142;14.924;2022-12-16T07:26:25;108.57;;;51.53;;
63499;SDS011;49654;51.142;14.924;2022-12-16T07:29:09;155.83;;;67.47;;
63499;SDS011;49654;51.142;14.924;2022-12-16T07:31:54;106.93;;;52.60;;
63499;SDS011;49654;51.142;14.924;2022-12-16T07:34:38;100.53;;;51.90;;
63499;SDS011;49654;51.142;14.924;2022-12-16T07:37:23;98.33;;;49.17;;
63499;SDS011;49654;51.142;14.924;2022-12-16T07:40:09;103.00;;;50.50;;
63499;SDS011;49654;51.142;14.924;2022-12-16T07:42:54;105.60;;;50.70;;
63499;SDS011;49654;51.142;14.924;2022-12-16T07:45:38;100.17;;;49.43;;
63499;SDS011;49654;51.142;14.924;2022-12-16T07:48:23;95.83;;;47.63;;
63499;SDS011;49654;51.142;14.924;2022-12-16T07:51:07;99.77;;;48.47;;
63499;SDS011;49654;51.142;14.924;2022-12-16T07:53:52;94.90;;;49.07;;
63499;SDS011;49654;51.142;14.924;2022-12-16T07:56:38;95.73;;;46.27;;
63499;SDS011;49654;51.142;14.924;2022-12-16T07:59:22;92.63;;;47.87;;
63499;SDS011;49654;51.142;14.924;2022-12-16T08:02:07;90.10;;;46.40;;
63499;SDS011;49654;51.142;14.924;2022-12-16T08:04:52;92.53;;;46.57;;
63499;SDS011;49654;51.142;14.924;2022-12-16T08:07:38;91.40;;;44.47;;
63499;SDS011;49654;51.142;14.924;2022-12-16T08:10:22;90.33;;;47.33;;
63499;SDS011;49654;51.142;14.924;2022-12-16T08:13:20;85.13;;;44.17;;
63499;SDS011;49654;51.142;14.924;2022-12-16T08:16:04;89.47;;;45.63;;
63499;SDS011;49654;51.142;14.924;2022-12-16T08:18:50;86.77;;;43.80;;
63499;SDS011;49654;51.142;14.924;2022-12-16T08:21:34;96.97;;;49.87;;
63499;SDS011;49654;51.142;14.924;2022-12-16T08:24:19;86.30;;;43.57;;
63499;SDS011;49654;51.142;14.924;2022-12-16T08:27:03;85.70;;;42.70;;
63499;SDS011;49654;51.142;14.924;2022-12-16T08:29:49;85.93;;;42.03;;
63499;SDS011;49654;51.142;14.924;2022-12-16T08:32:34;89.77;;;44.83;;
63499;SDS011;49654;51.142;14.924;2022-12-16T08:35:18;83.70;;;44.10;;
63499;SDS011;49654;51.142;14.924;2022-12-16T08:38:03;85.67;;;47.53;;
63499;SDS011;49654;51.142;14.924;2022-12-16T08:40:47;81.03;;;42.50;;
63499;SDS011;49654;51.142;14.924;2022-12-16T08:43:32;85.50;;;51.27;;
63499;SDS011;49654;51.142;14.924;2022-12-16T08:46:19;77.33;;;39.67;;
63499;SDS011;49654;51.142;14.924;2022-12-16T08:49:04;80.70;;;42.43;;
63499;SDS011;49654;51.142;14.924;2022-12-16T08:51:49;72.60;;;39.20;;
63499;SDS011;49654;51.142;14.924;2022-12-16T08:54:34;77.63;;;41.17;;
63499;SDS011;49654;51.142;14.924;2022-12-16T08:57:18;74.07;;;39.13;;
63499;SDS011;49654;51.142;14.924;2022-12-16T09:00:03;75.03;;;39.73;;
63499;SDS011;49654;51.142;14.924;2022-12-16T09:02:53;76.77;;;39.43;;
63499;SDS011;49654;51.142;14.924;2022-12-16T09:05:38;72.00;;;38.07;;
63499;SDS011;49654;51.142;14.924;2022-12-16T09:08:22;75.50;;;39.37;;
63499;SDS011;49654;51.142;14.924;2022-12-16T09:11:07;73.30;;;37.77;;
63499;SDS011;49654;51.142;14.924;2022-12-16T09:13:51;70.27;;;38.07;;
63499;SDS011;49654;51.142;14.924;2022-12-16T09:16:36;78.50;;;39.37;;
63499;SDS011;49654;51.142;14.924;2022-12-16T09:19:21;69.30;;;36.97;;
63499;SDS011;49654;51.142;14.924;2022-12-16T09:22:06;72.77;;;38.03;;
63499;SDS011;49654;51.142;14.924;2022-12-16T09:24:51;75.17;;;37.70;;
63499;SDS011;49654;51.142;14.924;2022-12-16T09:27:35;74.13;;;40.07;;
63499;SDS011;49654;51.142;14.924;2022-12-16T09:30:20;70.80;;;37.50;;
63499;SDS011;49654;51.142;14.924;2022-12-16T09:33:04;68.40;;;38.20;;
63499;SDS011;49654;51.142;14.924;2022-12-16T09:35:50;69.60;;;37.13;;
63499;SDS011;49654;51.142;14.924;2022-12-16T09:38:34;70.97;;;38.93;;
63499;SDS011;49654;51.142;14.924;2022-12-16T09:41:22;69.33;;;37.57;;
63499;SDS011;49654;51.142;14.924;2022-12-16T09:44:18;73.10;;;38.03;;
63499;SDS011;49654;51.142;14.924;2022-12-16T09:47:09;72.37;;;37.60;;
63499;SDS011;49654;51.142;14.924;2022-12-16T09:50:15;74.90;;;38.53;;
63499;SDS011;49654;51.142;14.924;2022-12-16T09:53:09;73.70;;;40.47;;
63499;SDS011;49654;51.142;14.924;2022-12-16T09:55:55;74.50;;;40.50;;
63499;SDS011;49654;51.142;14.924;2022-12-16T09:58:42;77.13;;;42.17;;
63499;SDS011;49654;51.142;14.924;2022-12-16T10:01:31;71.67;;;38.40;;
63499;SDS011;49654;51.142;14.924;2022-12-16T10:04:19;67.10;;;38.00;;
63499;SDS011;49654;51.142;14.924;2022-12-16T10:07:04;73.47;;;39.13;;
63499;SDS011;49654;51.142;14.924;2022-12-16T10:09:56;75.70;;;41.17;;
63499;SDS011;49654;51.142;14.924;2022-12-16T10:12:48;73.87;;;40.00;;
63499;SDS011;49654;51.142;14.924;2022-12-16T10:15:51;73.77;;;39.07;;
63499;SDS011;49654;51.142;14.924;2022-12-16T10:18:43;69.30;;;37.37;;
63499;SDS011;49654;51.142;14.924;2022-12-16T10:21:34;69.17;;;36.37;;
63499;SDS011;49654;51.142;14.924;2022-12-16T10:24:25;65.63;;;35.87;;
63499;SDS011;49654;51.142;14.924;2022-12-16T10:27:23;69.57;;;36.90;;
63499;SDS011;49654;51.142;14.924;2022-12-16T10:30:14;62.83;;;34.53;;
63499;SDS011;49654;51.142;14.924;2022-12-16T10:32:59;63.13;;;34.13;;
63499;SDS011;49654;51.142;14.924;2022-12-16T10:35:46;68.83;;;35.40;;
63499;SDS011;49654;51.142;14.924;2022-12-16T10:38:34;69.57;;;36.93;;
63499;SDS011;49654;51.142;14.924;2022-12-16T10:41:23;62.47;;;35.77;;
63499;SDS011;49654;51.142;14.924;2022-12-16T10:44:15;63.07;;;35.10;;
63499;SDS011;49654;51.142;14.924;2022-12-16T10:47:06;65.70;;;36.67;;
63499;SDS011;49654;51.142;14.924;2022-12-16T10:49:51;67.10;;;36.83;;
63499;SDS011;49654;51.142;14.924;2022-12-16T10:52:44;66.23;;;35.73;;
63499;SDS011;49654;51.142;14.924;2022-12-16T10:55:33;74.67;;;41.07;;
63499;SDS011;49654;51.142;14.924;2022-12-16T10:58:28;79.20;;;43.33;;
63499;SDS011;49654;51.142;14.924;2022-12-16T11:01:21;78.47;;;41.97;;
63499;SDS011;49654;51.142;14.924;2022-12-16T11:04:09;85.47;;;46.67;;
63499;SDS011;49654;51.142;14.924;2022-12-16T11:07:21;80.30;;;45.67;;
63499;SDS011;49654;51.142;14.924;2022-12-16T11:10:23;82.50;;;43.40;;
63499;SDS011;49654;51.142;14.924;2022-12-16T11:13:11;75.10;;;42.27;;
63499;SDS011;49654;51.142;14.924;2022-12-16T11:16:07;79.27;;;41.37;;
63499;SDS011;49654;51.142;14.924;2022-12-16T11:18:56;83.87;;;43.70;;
63499;SDS011;49654;51.142;14.924;2022-12-16T11:21:41;73.17;;;39.73;;
63499;SDS011;49654;51.142;14.924;2022-12-16T11:24:26;77.67;;;40.53;;
63499;SDS011;49654;51.142;14.924;2022-12-16T11:27:13;79.40;;;42.23;;
63499;SDS011;49654;51.142;14.924;2022-12-16T11:30:00;86.67;;;45.90;;
63499;SDS011;49654;51.142;14.924;2022-12-16T11:32:47;75.00;;;38.97;;
63499;SDS011;49654;51.142;14.924;2022-12-16T11:35:38;71.27;;;39.07;;
63499;SDS011;49654;51.142;14.924;2022-12-16T11:38:27;73.53;;;38.93;;
63499;SDS011;49654;51.142;14.924;2022-12-16T11:41:23;65.70;;;38.07;;
63499;SDS011;49654;51.142;14.924;2022-12-16T11:44:16;66.63;;;37.30;;
63499;SDS011;49654;51.142;14.924;2022-12-16T11:47:04;72.57;;;39.60;;
63499;SDS011;49654;51.142;14.924;2022-12-16T11:49:59;70.70;;;37.80;;
63499;SDS011;49654;51.142;14.924;2022-12-16T11:52:49;71.13;;;38.17;;
63499;SDS011;49654;51.142;14.924;2022-12-16T11:55:38;74.43;;;40.67;;
63499;SDS011;49654;51.142;14.924;2022-12-16T11:58:30;76.43;;;39.43;;
63499;SDS011;49654;51.142;14.924;2022-12-16T12:01:20;62.63;;;36.10;;
63499;SDS011;49654;51.142;14.924;2022-12-16T12:04:09;76.03;;;39.53;;
63499;SDS011;49654;51.142;14.924;2022-12-16T12:07:07;66.57;;;37.10;;
63499;SDS011;49654;51.142;14.924;2022-12-16T12:10:05;68.67;;;39.37;;
63499;SDS011;49654;51.142;14.924;2022-12-16T12:13:00;91.33;;;45.97;;
63499;SDS011;49654;51.142;14.924;2022-12-16T12:15:48;72.80;;;40.13;;
63499;SDS011;49654;51.142;14.924;2022-12-16T12:18:40;74.97;;;40.83;;
63499;SDS011;49654;51.142;14.924;2022-12-16T12:21:33;70.93;;;38.17;;
63499;SDS011;49654;51.142;14.924;2022-12-16T12:24:26;73.20;;;39.13;;
63499;SDS011;49654;51.142;14.924;2022-12-16T12:27:22;68.63;;;38.57;;
63499;SDS011;49654;51.142;14.924;2022-12-16T12:30:14;70.60;;;38.73;;
63499;SDS011;49654;51.142;14.924;2022-12-16T12:33:06;73.33;;;39.97;;
63499;SDS011;49654;51.142;14.924;2022-12-16T12:36:07;76.33;;;40.87;;
63499;SDS011;49654;51.142;14.924;2022-12-16T12:39:01;75.00;;;40.47;;
63499;SDS011;49654;51.142;14.924;2022-12-16T12:41:55;82.90;;;41.87;;
63499;SDS011;49654;51.142;14.924;2022-12-16T12:44:53;74.00;;;40.40;;
63499;SDS011;49654;51.142;14.924;2022-12-16T12:47:45;75.80;;;40.93;;
63499;SDS011;49654;51.142;14.924;2022-12-16T12:50:39;84.13;;;44.83;;
63499;SDS011;49654;51.142;14.924;2022-12-16T12:53:32;78.70;;;42.70;;
63499;SDS011;49654;51.142;14.924;2022-12-16T12:56:28;85.00;;;44.57;;
63499;SDS011;49654;51.142;14.924;2022-12-16T12:59:21;77.70;;;42.20;;
63499;SDS011;49654;51.142;14.924;2022-12-16T13:02:14;75.20;;;40.60;;
63499;SDS011;49654;51.142;14.924;2022-12-16T13:05:04;75.03;;;40.07;;
63499;SDS011;49654;51.142;14.924;2022-12-16T13:07:49;73.40;;;40.77;;
63499;SDS011;49654;51.142;14.924;2022-12-16T13:10:35;76.27;;;42.10;;
63499;SDS011;49654;51.142;14.924;2022-12-16T13:13:34;100.03;;;50.33;;
63499;SDS011;49654;51.142;14.924;2022-12-16T13:19:54;75.87;;;43.17;;
63499;SDS011;49654;51.142;14.924;2022-12-16T13:22:39;80.93;;;43.07;;
63499;SDS011;49654;51.142;14.924;2022-12-16T13:25:32;74.40;;;41.30;;
63499;SDS011;49654;51.142;14.924;2022-12-16T13:28:22;80.40;;;42.80;;
63499;SDS011;49654;51.142;14.924;2022-12-16T13:31:08;73.07;;;40.57;;
63499;SDS011;49654;51.142;14.924;2022-12-16T13:33:54;75.77;;;40.30;;
63499;SDS011;49654;51.142;14.924;2022-12-16T13:36:46;77.73;;;42.10;;
63499;SDS011;49654;51.142;14.924;2022-12-16T13:39:37;74.90;;;41.23;;
63499;SDS011;49654;51.142;14.924;2022-12-16T13:42:32;77.83;;;41.90;;
63499;SDS011;49654;51.142;14.924;2022-12-16T13:45:32;85.13;;;44.23;;
63499;SDS011;49654;51.142;14.924;2022-12-16T13:48:29;78.27;;;41.83;;
63499;SDS011;49654;51.142;14.924;2022-12-16T13:58:01;86.40;;;45.97;;
63499;SDS011;49654;51.142;14.924;2022-12-16T14:00:47;74.53;;;39.57;;
63499;SDS011;49654;51.142;14.924;2022-12-16T14:03:40;73.53;;;39.90;;
63499;SDS011;49654;51.142;14.924;2022-12-16T14:06:27;78.80;;;42.90;;
63499;SDS011;49654;51.142;14.924;2022-12-16T14:09:27;75.20;;;41.47;;
63499;SDS011;49654;51.142;14.924;2022-12-16T14:12:26;79.30;;;41.00;;
63499;SDS011;49654;51.142;14.924;2022-12-16T14:15:25;85.17;;;44.53;;
63499;SDS011;49654;51.142;14.924;2022-12-16T14:18:17;78.40;;;38.77;;
63499;SDS011;49654;51.142;14.924;2022-12-16T14:21:12;74.63;;;39.13;;
63499;SDS011;49654;51.142;14.924;2022-12-16T14:24:03;75.43;;;41.27;;
63499;SDS011;49654;51.142;14.924;2022-12-16T14:26:54;74.63;;;39.97;;
63499;SDS011;49654;51.142;14.924;2022-12-16T14:29:41;73.00;;;39.93;;
63499;SDS011;49654;51.142;14.924;2022-12-16T14:32:27;73.40;;;38.40;;
63499;SDS011;49654;51.142;14.924;2022-12-16T14:35:14;71.93;;;39.63;;
63499;SDS011;49654;51.142;14.924;2022-12-16T14:41:09;73.50;;;39.47;;
63499;SDS011;49654;51.142;14.924;2022-12-16T14:43:54;81.17;;;45.07;;
63499;SDS011;49654;51.142;14.924;2022-12-16T14:46:40;75.87;;;40.87;;
63499;SDS011;49654;51.142;14.924;2022-12-16T14:49:26;74.40;;;39.70;;
63499;SDS011;49654;51.142;14.924;2022-12-16T14:52:17;74.20;;;40.13;;
63499;SDS011;49654;51.142;14.924;2022-12-16T14:55:05;76.70;;;40.23;;
63499;SDS011;49654;51.142;14.924;2022-12-16T14:58:05;77.70;;;42.37;;
63499;SDS011;49654;51.142;14.924;2022-12-16T15:00:54;80.67;;;42.10;;
63499;SDS011;49654;51.142;14.924;2022-12-16T15:03:44;84.47;;;44.73;;
63499;SDS011;49654;51.142;14.924;2022-12-16T15:06:33;70.53;;;40.17;;
63499;SDS011;49654;51.142;14.924;2022-12-16T15:09:26;82.23;;;43.37;;
63499;SDS011;49654;51.142;14.924;2022-12-16T15:12:14;81.97;;;42.83;;
63499;SDS011;49654;51.142;14.924;2022-12-16T15:15:02;76.57;;;40.17;;
63499;SDS011;49654;51.142;14.924;2022-12-16T15:17:51;78.10;;;41.37;;
63499;SDS011;49654;51.142;14.924;2022-12-16T15:20:41;72.07;;;41.47;;
63499;SDS011;49654;51.142;14.924;2022-12-16T15:23:32;79.17;;;43.77;;
63499;SDS011;49654;51.142;14.924;2022-12-16T15:26:18;87.60;;;47.70;;
63499;SDS011;49654;51.142;14.924;2022-12-16T15:29:04;79.00;;;40.50;;
63499;SDS011;49654;51.142;14.924;2022-12-16T15:31:49;91.23;;;46.40;;
63499;SDS011;49654;51.142;14.924;2022-12-16T15:34:36;96.43;;;48.17;;
63499;SDS011;49654;51.142;14.924;2022-12-16T15:37:30;80.83;;;41.20;;
63499;SDS011;49654;51.142;14.924;2022-12-16T15:40:22;80.13;;;43.27;;
63499;SDS011;49654;51.142;14.924;2022-12-16T15:43:20;82.33;;;42.97;;
63499;SDS011;49654;51.142;14.924;2022-12-16T15:46:14;114.03;;;51.07;;
63499;SDS011;49654;51.142;14.924;2022-12-16T15:49:04;126.07;;;54.80;;
63499;SDS011;49654;51.142;14.924;2022-12-16T15:52:20;115.00;;;51.97;;
63499;SDS011;49654;51.142;14.924;2022-12-16T15:55:22;159.57;;;64.87;;
63499;SDS011;49654;51.142;14.924;2022-12-16T15:58:10;101.87;;;49.13;;